Nearby METAR Reports

 

KIAD - Wash Dc/Dulles, Virginia, USA
Distance from station: ESE 7mi, 11km
Updated: Sat, 20-Jul-2019 11:52pm EDT
Mostly cloudy
Mostly cloudy
 Wind from calm
Wind: Calm
Temperature: 81°F , 27°C
Heat Index: 85°F , 29°C
Dew Point: 70°F , 21°C
Humidity: 70%
Barometer: 29.89 inHg , 1012.2 hPa
Clouds: Mostly cloudy
Visibility: 10 miles , 16 km
Cloud details: Partly cloudy 16000 ft
Mostly cloudy 18000 ft
Mostly cloudy 20000 ft
2019/07/21 03:52 KIAD 210352Z 00000KT 10SM SCT160 BKN180 BKN200 27/21 A2989 RMK AO2 SLP119 T02670211
KJYO - Leesburg/Godfrey, Virginia, USA
Distance from station: N 7mi, 12km
Updated: Sat, 20-Jul-2019 11:55pm EDT
Clear
Clear
 Wind from WSW
Wind: WSW 3 mph , 6 km/h
Temperature: 77°F , 25°C
Dew Point: 73°F , 23°C
Humidity: 89%
Barometer: 29.90 inHg , 1012.5 hPa
Clouds: Clear
Visibility: 10 miles , 16 km
2019/07/21 03:55 KJYO 210355Z AUTO 24003KT 10SM CLR 25/23 A2990 RMK AO2
 
KHEF - Manassas Muni, Virginia, USA
Distance from station: S 17mi, 28km
Updated: Sat, 20-Jul-2019 11:56pm EDT
Clear
Clear
 Wind from calm
Wind: Calm
Temperature: 81°F , 27°C
Heat Index: 85°F , 29°C
Dew Point: 70°F , 21°C
Humidity: 70%
Barometer: 29.90 inHg , 1012.5 hPa
Clouds: Clear
Visibility: 10 miles , 16 km
2019/07/21 03:56 KHEF 210356Z AUTO 00000KT 10SM CLR 27/21 A2990 RMK AO2 SLP130 T02670206 403670228 PNO $
KGAI - Gaithersburg, Maryland, USA
Distance from station: NE 26mi, 41km
Updated: Sat, 20-Jul-2019 11:56pm EDT
Clear
Clear
 Wind from W
Wind: W 6 mph , 9 km/h
Temperature: 82°F , 28°C
Heat Index: 87°F , 31°C
Dew Point: 73°F , 23°C
Humidity: 74%
Barometer: 29.91 inHg , 1012.9 hPa
Clouds: Clear
Visibility: 10 miles , 16 km
2019/07/21 03:56 KGAI 210356Z AUTO 26005KT 10SM CLR 28/23 A2991 RMK AO2 SLP133 T02830228 PNO $
 
KDAA - Fort Belvoir/Dav, Virginia, USA
Distance from station: SE 27mi, 44km
Updated: Sat, 20-Jul-2019 11:56pm EDT
Light rain, Mostly cloudy
Light rain, Mostly cloudy
 Wind from calm
Wind: Calm
Temperature: 81°F , 27°C
Heat Index: 85°F , 29°C
Dew Point: 70°F , 21°C
Humidity: 70%
Barometer: 29.88 inHg , 1011.9 hPa
Summary: Light rain
Clouds: Mostly cloudy
Visibility: 10 miles , 16 km
Cloud details: Mostly cloudy 22000 ft
2019/07/21 03:56 KDAA 210356Z AUTO 00000KT 10SM -RA BKN220 27/21 A2988 RMK AO2 SLP120 P0000 T02660209 $
KHWY - Warrenton, Virginia, USA
Distance from station: SSW 27mi, 44km
Updated: Sat, 20-Jul-2019 11:55pm EDT
Clear
Clear
 Wind from calm
Wind: Calm
Temperature: 77°F , 25°C
Dew Point: 72°F , 22°C
Humidity: 83%
Barometer: 29.90 inHg , 1012.5 hPa
Clouds: Clear
Visibility: 10 miles , 16 km
2019/07/21 03:55 KHWY 210355Z AUTO 00000KT 10SM CLR 25/22 A2990 RMK AO2 T02450217
 
KDCA - Washington/Natl, Washington D.c., USA
Distance from station: ESE 30mi, 48km
Updated: Sat, 20-Jul-2019 11:52pm EDT
Overcast
Overcast
 Wind from WNW
Wind: WNW 5 mph , 7 km/h
Temperature: 88°F , 31°C
Heat Index: 91°F , 33°C
Dew Point: 66°F , 19°C
Humidity: 49%
Barometer: 29.88 inHg , 1011.9 hPa
Clouds: Overcast
Visibility: 10 miles , 16 km
Cloud details: Mostly cloudy 14000 ft
Overcast 25000 ft
2019/07/21 03:52 KDCA 210352Z 30004KT 10SM BKN140 OVC250 31/19 A2988 RMK AO2 SLP115 T03110194
KFDK - Frederick, Maryland, USA
Distance from station: NNE 33mi, 53km
Updated: Sun, 21-Jul-2019 12:05am EDT
Clear
Clear
 Wind from calm
Wind: Calm
Temperature: 82°F , 28°C
Heat Index: 89°F , 32°C
Dew Point: 75°F , 24°C
Humidity: 79%
Barometer: 29.92 inHg , 1013.2 hPa
Clouds: Clear
Visibility: 10 miles , 16 km
2019/07/21 04:05 KFDK 210405Z AUTO 00000KT 10SM CLR 28/24 A2992 RMK AO2
 
KOKV - Winchester Rgnl, Virginia, USA
Distance from station: WNW 33mi, 54km
Updated: Sat, 20-Jul-2019 11:55pm EDT
Clear
Clear
 Wind from W
Wind: W 5 mph , 7 km/h
Temperature: 77°F , 25°C
Dew Point: 72°F , 22°C
Humidity: 83%
Barometer: 29.94 inHg , 1013.9 hPa
Clouds: Clear
Visibility: 10 miles , 16 km
2019/07/21 03:55 KOKV 210355Z AUTO 28004KT 10SM CLR 25/22 A2994 RMK AO2
KCJR - Culpeper, Virginia, USA
Distance from station: SSW 34mi, 54km
Updated: Sat, 20-Jul-2019 11:55pm EDT
Clear
Clear
 Wind from calm
Wind: Calm
Temperature: 79°F , 26°C
Dew Point: 70°F , 21°C
Humidity: 74%
Barometer: 29.92 inHg , 1013.2 hPa
Clouds: Clear
Visibility: 10 miles , 16 km
2019/07/21 03:55 KCJR 210355Z AUTO 00000KT 10SM CLR 26/21 A2992 RMK AO2 T02550207
 
KCGS - College Park, Maryland, USA
Distance from station: E 35mi, 56km
Updated: Sun, 21-Jul-2019 12:03am EDT
Clear
Clear
 Wind from calm
Wind: Calm
Temperature: 86°F , 30°C
Heat Index: 88°F , 31°C
Dew Point: 66°F , 19°C
Humidity: 52%
Barometer: 29.87 inHg , 1011.5 hPa
Clouds: Clear
Visibility: 10 miles , 16 km
2019/07/21 04:03 KCGS 210403Z AUTO 00000KT 10SM CLR 30/19 A2987 RMK AO1 T02950185
KNYG - Quantico Mcaf, Virginia, USA
Distance from station: SSE 35mi, 57km
Updated: Sat, 20-Jul-2019 11:56pm EDT
Clear
Clear
 Wind from WNW
Wind: WNW 9 mph , 15 km/h
Temperature: 86°F , 30°C
Heat Index: 91°F , 33°C
Dew Point: 70°F , 21°C
Humidity: 59%
Barometer: 29.89 inHg , 1012.2 hPa
Clouds: Clear
Visibility: 10 miles , 16 km
2019/07/21 03:56 KNYG 210356Z AUTO 30008KT 10SM CLR 30/21 A2989 RMK AO2 SLP122 T03000211 $
 
KFRR - Fort Royal, Virginia, USA
Distance from station: W 37mi, 59km
Updated: Sat, 20-Jul-2019 11:55pm EDT
Clear
Clear
 Wind from SSW
Wind: SSW 5 mph , 7 km/h
Temperature: 77°F , 25°C
Dew Point: 72°F , 22°C
Humidity: 83%
Barometer: 29.93 inHg , 1013.5 hPa
Clouds: Clear
Visibility: 10 miles , 16 km
2019/07/21 03:55 KFRR 210355Z AUTO 20004KT 10SM CLR 25/22 A2993 RMK AO1
KMRB - Martinsburg, West Virginia, USA
Distance from station: NW 38mi, 61km
Updated: Sat, 20-Jul-2019 11:53pm EDT
Clear
Clear
 Wind from WNW
Wind: WNW 6 mph , 9 km/h
Temperature: 88°F , 31°C
Heat Index: 95°F , 35°C
Dew Point: 72°F , 22°C
Humidity: 59%
Barometer: 29.89 inHg , 1012.2 hPa
Clouds: Clear
Visibility: 10 miles , 16 km
2019/07/21 03:53 KMRB 210353Z AUTO 29005KT 10SM CLR 31/22 A2989 RMK AO2 SLP116 T03060217
 
KADW - Andrews Afb, Maryland, USA
Distance from station: ESE 39mi, 63km
Updated: Sat, 20-Jul-2019 11:56pm EDT
Mostly cloudy
Mostly cloudy
 Wind from WSW
Wind: WSW 5 mph , 7 km/h
Temperature: 86°F , 30°C
Heat Index: 89°F , 32°C
Dew Point: 68°F , 20°C
Humidity: 55%
Barometer: 29.88 inHg , 1011.9 hPa
Clouds: Mostly cloudy
Visibility: 10 miles , 16 km
Cloud details: Partly cloudy 19000 ft
Mostly cloudy 21000 ft
2019/07/21 03:56 KADW 210356Z AUTO 25004KT 10SM SCT190 BKN210 30/20 A2988 RMK AO2 SLP122 T02970199 $
KRMN - Stafford Regnl, Virginia, USA
Distance from station: S 39mi, 63km
Updated: Sat, 20-Jul-2019 11:55pm EDT
Clear
Clear
 Wind from calm
Wind: Calm
Temperature: 81°F , 27°C
Heat Index: 86°F , 30°C
Dew Point: 73°F , 23°C
Humidity: 79%
Barometer: 29.94 inHg , 1013.9 hPa
Clouds: Clear
Visibility: 10 miles , 16 km
2019/07/21 03:55 KRMN 210355Z AUTO 00000KT 10SM CLR 27/23 A2994 RMK AO2 T02680232
 
KFME - Fort Meade, Maryland, USA
Distance from station: ENE 44mi, 70km
Updated: Sat, 20-Jul-2019 11:42pm EDT
Clear
Clear
 Wind from calm
Wind: Calm
Temperature: 77°F , 25°C
Dew Point: 75°F , 24°C
Humidity: 94%
Barometer: 29.89 inHg , 1012.2 hPa
Clouds: Clear
Visibility: 7 miles , 11 km
2019/07/21 03:42 KFME 210342Z AUTO 00000KT 7SM CLR 25/24 A2989 RMK AO1
KRSP - Nsf Thurmont, Maryland, USA
Distance from station: N 48mi, 77km
Updated: Sat, 18-May-2019 1:54pm EDT
NOT Current

 
2019/05/18 17:54 KRSP 181754Z AUTO VRB04KTLS21/16 A3004 RMK AO2 SLP168 T02110161 10228 20172 $
 
KEZF - Fredericksb/Shan, Virginia, USA
Distance from station: S 48mi, 78km
Updated: Sat, 20-Jul-2019 11:55pm EDT
Mostly cloudy
Mostly cloudy
 Wind from calm
Wind: Calm
Temperature: 84°F , 29°C
Heat Index: 94°F , 34°C
Dew Point: 77°F , 25°C
Humidity: 79%
Barometer: 29.89 inHg , 1012.2 hPa
Clouds: Mostly cloudy
Visibility: 10 miles , 16 km
Cloud details: Mostly cloudy 6500 ft
2019/07/21 03:55 KEZF 210355Z AUTO 00000KT 10SM BKN065 29/25 A2989 RMK AO2 T02860254
KBWI - Balto/Wash Intl, Maryland, USA
Distance from station: ENE 49mi, 80km
Updated: Sat, 20-Jul-2019 11:54pm EDT
Mostly cloudy
Mostly cloudy
 Wind from SW
Wind: SW 6 mph , 9 km/h
Temperature: 86°F , 30°C
Heat Index: 95°F , 35°C
Dew Point: 75°F , 24°C
Humidity: 70%
Barometer: 29.85 inHg , 1010.8 hPa
Clouds: Mostly cloudy
Visibility: 10 miles , 16 km
Cloud details: Mostly cloudy 23000 ft
2019/07/21 03:54 KBWI 210354Z 23005KT 10SM BKN230 30/24 A2985 RMK AO2 SLP107 T03000239